createdAt,value
2022-07-30T00:01:20.616Z,47.10
2022-07-30T00:03:48.660Z,46.90
2022-07-30T00:06:19.088Z,47.40
2022-07-30T00:08:47.027Z,47.27
2022-07-30T00:11:15.730Z,46.73
2022-07-30T00:13:44.404Z,47.20
2022-07-30T00:16:12.675Z,48.25
2022-07-30T00:18:43.287Z,47.22
2022-07-30T00:21:11.726Z,47.08
2022-07-30T00:24:01.122Z,46.75
2022-07-30T00:26:29.704Z,47.31
2022-07-30T00:28:58.633Z,47.56
2022-07-30T00:31:26.445Z,48.08
2022-07-30T00:33:55.074Z,47.50
2022-07-30T00:36:23.449Z,47.53
2022-07-30T00:38:51.238Z,47.53
2022-07-30T00:41:18.957Z,48.23
2022-07-30T00:43:46.942Z,48.26
2022-07-30T00:46:15.573Z,48.89
2022-07-30T00:48:46.737Z,48.65
2022-07-30T00:51:15.149Z,48.16
2022-07-30T00:53:43.914Z,48.73
2022-07-30T00:56:11.850Z,49.09
2022-07-30T00:58:41.427Z,48.75
2022-07-30T01:01:10.005Z,49.04
2022-07-30T01:03:38.492Z,48.66
2022-07-30T01:06:06.669Z,49.10
2022-07-30T01:08:43.618Z,49.91
2022-07-30T01:11:12.031Z,49.27
2022-07-30T01:13:44.037Z,49.28
2022-07-30T01:16:14.002Z,48.80
2022-07-30T01:19:02.526Z,48.73
2022-07-30T01:21:38.435Z,49.38
2022-07-30T01:24:29.234Z,49.94
2022-07-30T01:26:58.725Z,48.79
2022-07-30T01:29:27.731Z,49.32
2022-07-30T01:31:59.970Z,48.87
2022-07-30T01:34:29.992Z,50.48
2022-07-30T01:36:59.637Z,49.77
2022-07-30T01:39:32.900Z,49.75
2022-07-30T01:42:05.269Z,49.51
2022-07-30T01:44:34.689Z,48.84
2022-07-30T01:47:03.325Z,48.78
2022-07-30T01:49:32.847Z,48.50
2022-07-30T01:52:02.981Z,48.24
2022-07-30T01:54:32.269Z,48.90
2022-07-30T01:57:02.077Z,48.90
2022-07-30T01:59:33.751Z,48.76
2022-07-30T02:02:02.955Z,49.56
2022-07-30T02:04:30.900Z,51.06
2022-07-30T02:07:13.043Z,50.38
2022-07-30T02:09:48.482Z,51.30
2022-07-30T02:12:29.063Z,50.92
2022-07-30T02:15:21.456Z,51.16
2022-07-30T02:18:02.566Z,51.61
2022-07-30T02:20:32.375Z,50.83
2022-07-30T02:23:07.599Z,50.64
2022-07-30T02:25:39.151Z,51.17
2022-07-30T02:28:10.394Z,50.89
2022-07-30T02:30:42.738Z,52.84
2022-07-30T02:33:12.766Z,51.70
2022-07-30T02:35:42.885Z,51.66
2022-07-30T02:38:11.996Z,52.18
2022-07-30T02:40:43.692Z,53.63
2022-07-30T02:43:15.543Z,53.27
2022-07-30T02:45:47.044Z,53.31
2022-07-30T02:48:34.340Z,53.72
2022-07-30T02:51:04.525Z,52.76
2022-07-30T02:53:34.231Z,53.74
2022-07-30T02:56:03.260Z,52.61
2022-07-30T02:58:33.281Z,53.41
2022-07-30T03:01:03.837Z,53.14
2022-07-30T03:03:32.708Z,52.25
2022-07-30T03:06:00.663Z,52.50
2022-07-30T03:08:29.362Z,53.62
2022-07-30T03:10:58.043Z,52.73
2022-07-30T03:13:26.222Z,53.08
2022-07-30T03:15:54.649Z,53.72
2022-07-30T03:18:23.619Z,52.85
2022-07-30T03:20:56.625Z,52.60
2022-07-30T03:23:25.638Z,54.45
2022-07-30T03:25:58.170Z,54.20
2022-07-30T03:28:26.963Z,53.31
2022-07-30T03:30:57.087Z,53.21
2022-07-30T03:33:38.587Z,53.35
2022-07-30T03:36:08.328Z,53.78
2022-07-30T03:38:38.198Z,54.17
2022-07-30T03:41:07.742Z,55.19
2022-07-30T03:43:36.396Z,54.58
2022-07-30T03:46:05.384Z,55.00
2022-07-30T03:48:34.773Z,54.12
2022-07-30T03:51:04.279Z,55.87
2022-07-30T03:53:32.343Z,55.59
2022-07-30T03:56:03.725Z,54.63
2022-07-30T03:58:35.925Z,55.30
2022-07-30T04:01:05.734Z,55.56
2022-07-30T04:03:34.484Z,54.55
2022-07-30T04:06:02.299Z,55.21
2022-07-30T04:08:30.527Z,55.23
2022-07-30T04:10:59.728Z,55.42
2022-07-30T04:13:28.747Z,55.79
2022-07-30T04:16:34.342Z,55.51
2022-07-30T04:18:53.964Z,56.03
2022-07-30T04:21:23.730Z,55.20
2022-07-30T04:24:02.173Z,55.85
2022-07-30T04:26:36.519Z,56.23
2022-07-30T04:29:13.378Z,56.58
2022-07-30T04:31:42.512Z,56.36
2022-07-30T04:34:15.549Z,56.42
2022-07-30T04:36:48.009Z,56.86
2022-07-30T04:39:16.370Z,57.33
2022-07-30T04:41:49.742Z,57.96
2022-07-30T04:44:22.920Z,56.88
2022-07-30T04:46:52.888Z,57.38
2022-07-30T04:49:23.461Z,57.04
2022-07-30T04:51:52.290Z,56.80
2022-07-30T04:54:21.892Z,56.69
2022-07-30T04:57:00.920Z,56.60
2022-07-30T04:59:29.888Z,57.07
2022-07-30T05:01:59.356Z,57.21
2022-07-30T05:04:28.264Z,56.33
2022-07-30T05:06:57.475Z,57.06
2022-07-30T05:09:26.703Z,56.68
2022-07-30T05:11:56.614Z,55.26
2022-07-30T05:14:25.612Z,56.35
2022-07-30T05:16:55.921Z,56.88
2022-07-30T05:19:25.343Z,55.44
2022-07-30T05:21:54.275Z,55.35
2022-07-30T05:24:27.192Z,54.99
2022-07-30T05:27:00.842Z,54.93
2022-07-30T05:29:29.941Z,56.03
2022-07-30T05:32:02.691Z,55.64
2022-07-30T05:34:32.456Z,55.63
2022-07-30T05:37:00.581Z,56.01
2022-07-30T05:39:30.052Z,55.45
2022-07-30T05:42:00.034Z,55.00
2022-07-30T05:44:27.885Z,54.69
2022-07-30T05:46:56.159Z,55.18
2022-07-30T05:49:25.238Z,55.40
2022-07-30T05:51:55.045Z,56.30
2022-07-30T05:54:25.164Z,55.47
2022-07-30T05:56:56.791Z,54.80
2022-07-30T05:59:26.397Z,55.13
2022-07-30T06:01:56.563Z,55.69
2022-07-30T06:04:26.084Z,55.02
2022-07-30T06:06:56.596Z,54.95
2022-07-30T06:09:37.099Z,56.32
2022-07-30T06:12:09.036Z,54.95
2022-07-30T06:14:40.371Z,53.73
2022-07-30T06:17:08.897Z,52.29
2022-07-30T06:19:39.166Z,52.69
2022-07-30T06:22:08.207Z,53.76
2022-07-30T06:24:44.897Z,54.21
2022-07-30T06:27:13.572Z,53.66
2022-07-30T06:29:42.801Z,53.16
2022-07-30T06:32:12.435Z,52.99
2022-07-30T06:34:42.646Z,52.67
2022-07-30T06:37:12.368Z,52.03
2022-07-30T06:39:58.105Z,50.43
2022-07-30T06:42:29.614Z,50.18
2022-07-30T06:45:01.730Z,50.74
2022-07-30T06:47:32.597Z,50.07
2022-07-30T06:50:03.887Z,50.73
2022-07-30T06:52:34.010Z,51.16
2022-07-30T06:55:04.946Z,52.50
2022-07-30T06:57:42.429Z,50.85
2022-07-30T07:00:14.672Z,50.21
2022-07-30T07:02:58.686Z,50.60
2022-07-30T07:05:31.764Z,50.31
2022-07-30T07:08:02.129Z,49.21
2022-07-30T07:10:34.871Z,49.38
2022-07-30T07:13:07.347Z,49.64
2022-07-30T07:15:41.099Z,51.34
2022-07-30T07:18:18.368Z,49.37
2022-07-30T07:20:48.301Z,47.58
2022-07-30T07:23:19.761Z,47.05
2022-07-30T07:25:48.202Z,49.05
2022-07-30T07:28:17.689Z,48.42
2022-07-30T07:30:47.195Z,49.36
2022-07-30T07:33:22.215Z,47.91
2022-07-30T07:35:59.064Z,49.78
2022-07-30T07:38:27.895Z,47.53
2022-07-30T07:40:57.078Z,46.37
2022-07-30T07:43:25.538Z,45.63
2022-07-30T07:45:55.243Z,45.94
2022-07-30T07:48:23.388Z,46.47
2022-07-30T07:50:51.922Z,45.34
2022-07-30T07:53:23.643Z,47.01
2022-07-30T07:55:52.799Z,48.68
2022-07-30T08:01:04.007Z,47.82
2022-07-30T08:03:33.789Z,49.15
2022-07-30T08:06:07.670Z,49.15
2022-07-30T08:08:46.727Z,49.03
2022-07-30T08:11:20.417Z,48.57
2022-07-30T08:13:52.450Z,48.79
2022-07-30T08:16:39.862Z,50.57
2022-07-30T08:19:12.273Z,50.14
2022-07-30T08:21:41.137Z,49.46
2022-07-30T08:24:16.239Z,49.29
2022-07-30T08:26:45.632Z,49.06
2022-07-30T08:29:17.341Z,47.71
2022-07-30T08:31:47.428Z,48.99
2022-07-30T08:34:15.816Z,47.95
2022-07-30T08:36:45.156Z,48.39
2022-07-30T08:39:18.769Z,48.18
2022-07-30T08:41:52.930Z,48.00
2022-07-30T08:44:23.897Z,49.58
2022-07-30T08:46:59.899Z,49.29
2022-07-30T08:49:41.010Z,50.38
2022-07-30T08:52:11.160Z,50.44
2022-07-30T08:54:41.699Z,51.07
2022-07-30T08:57:14.626Z,50.76
2022-07-30T08:59:52.850Z,51.62
2022-07-30T09:02:35.709Z,51.62
2022-07-30T09:05:05.675Z,51.88
2022-07-30T09:07:48.743Z,52.42
2022-07-30T09:10:25.441Z,52.60
2022-07-30T09:12:53.309Z,53.68
2022-07-30T09:15:23.763Z,54.13
2022-07-30T09:17:58.962Z,53.85
2022-07-30T09:20:37.705Z,54.51
2022-07-30T09:23:07.134Z,54.24
2022-07-30T09:25:51.871Z,54.66
2022-07-30T09:28:39.942Z,54.37
2022-07-30T09:31:11.593Z,55.50
2022-07-30T09:36:43.014Z,55.22
2022-07-30T09:39:34.978Z,54.48
2022-07-30T09:42:18.052Z,55.14
2022-07-30T09:44:47.527Z,58.68
2022-07-30T09:47:45.046Z,61.36
2022-07-30T09:50:18.037Z,60.77
2022-07-30T09:53:11.993Z,62.64
2022-07-30T09:55:56.777Z,63.29
2022-07-30T09:58:45.628Z,65.26
2022-07-30T10:01:15.651Z,67.47
2022-07-30T10:03:50.276Z,68.20
2022-07-30T10:06:33.926Z,65.08
2022-07-30T10:09:14.320Z,67.82
2022-07-30T10:11:49.846Z,66.80
2022-07-30T10:14:19.682Z,69.19
2022-07-30T10:17:00.717Z,68.00
2022-07-30T10:19:39.899Z,68.19
2022-07-30T10:22:17.074Z,67.31
2022-07-30T10:24:54.861Z,67.52
2022-07-30T10:27:34.083Z,67.63
2022-07-30T10:30:13.661Z,68.16
2022-07-30T10:32:43.835Z,67.41
2022-07-30T10:35:13.913Z,67.21
2022-07-30T10:38:02.196Z,67.46
2022-07-30T10:40:39.540Z,68.47
2022-07-30T10:43:31.686Z,66.85
2022-07-30T10:46:22.158Z,67.44
2022-07-30T10:49:19.038Z,66.14
2022-07-30T10:54:48.063Z,68.26
2022-07-30T10:57:31.686Z,67.64
2022-07-30T11:00:12.136Z,66.19
2022-07-30T11:03:14.362Z,67.22
2022-07-30T11:05:49.657Z,67.48
2022-07-30T11:08:31.870Z,67.37
2022-07-30T11:12:01.401Z,67.40
2022-07-30T11:14:20.535Z,66.84
2022-07-30T11:16:51.787Z,67.13
2022-07-30T11:19:56.708Z,67.56
2022-07-30T11:22:38.976Z,68.43
2022-07-30T11:25:12.992Z,68.37
2022-07-30T11:27:48.985Z,68.26
2022-07-30T11:30:19.896Z,68.05
2022-07-30T11:32:51.860Z,68.80
2022-07-30T11:35:34.643Z,66.81
2022-07-30T11:38:08.571Z,66.37
2022-07-30T11:40:42.865Z,66.19
2022-07-30T11:43:34.678Z,67.56
2022-07-30T11:46:29.044Z,65.95
2022-07-30T11:49:09.758Z,65.39
2022-07-30T11:51:48.098Z,65.38
2022-07-30T11:54:25.814Z,65.61
2022-07-30T11:57:04.578Z,66.69
2022-07-30T11:59:58.600Z,67.95
2022-07-30T12:02:30.954Z,64.57
2022-07-30T12:04:59.222Z,64.72
2022-07-30T12:07:29.706Z,65.66
2022-07-30T12:13:16.468Z,63.30
2022-07-30T12:15:56.693Z,62.03
2022-07-30T12:18:31.909Z,64.00
2022-07-30T12:21:09.728Z,65.06
2022-07-30T12:23:53.870Z,66.03
2022-07-30T12:26:28.736Z,64.26
2022-07-30T12:29:06.833Z,64.16
2022-07-30T12:31:46.918Z,63.15
2022-07-30T12:34:23.912Z,63.15
2022-07-30T12:36:58.633Z,64.44
2022-07-30T12:39:33.600Z,62.84
2022-07-30T12:42:20.891Z,62.02
2022-07-30T12:47:33.960Z,60.18
2022-07-30T12:50:05.544Z,61.44
2022-07-30T12:52:40.746Z,62.04
2022-07-30T12:55:20.925Z,60.33
2022-07-30T12:57:59.907Z,57.28
2022-07-30T13:00:50.853Z,58.88
2022-07-30T13:03:28.656Z,57.62
2022-07-30T13:06:02.267Z,55.62
2022-07-30T13:08:48.754Z,56.67
2022-07-30T13:11:19.833Z,57.51
2022-07-30T13:13:52.117Z,58.01
2022-07-30T13:16:22.986Z,58.45
2022-07-30T13:18:52.303Z,59.79
2022-07-30T13:21:23.068Z,60.52
2022-07-30T13:23:53.815Z,60.60
2022-07-30T13:26:23.204Z,60.27
2022-07-30T13:29:01.652Z,60.93
2022-07-30T13:32:05.809Z,61.49
2022-07-30T13:34:50.780Z,61.00
2022-07-30T13:42:43.743Z,62.20
2022-07-30T13:45:15.037Z,61.16
2022-07-30T13:47:50.700Z,61.43
2022-07-30T13:50:27.917Z,60.81
2022-07-30T13:53:02.349Z,60.31
2022-07-30T13:55:31.133Z,60.60
2022-07-30T13:57:59.892Z,60.27
2022-07-30T14:03:11.555Z,61.84
2022-07-30T14:05:43.469Z,61.77
2022-07-30T14:10:48.315Z,61.44
2022-07-30T14:13:21.071Z,62.09
2022-07-30T14:15:55.693Z,61.31
2022-07-30T14:18:24.447Z,60.78
2022-07-30T14:20:53.823Z,58.35
2022-07-30T14:23:25.334Z,58.76
2022-07-30T14:25:54.214Z,59.79
2022-07-30T14:28:25.774Z,60.05
2022-07-30T14:30:54.266Z,59.33
2022-07-30T14:33:29.686Z,57.26
2022-07-30T14:36:10.726Z,57.84
2022-07-30T14:38:40.128Z,56.55
2022-07-30T14:41:10.699Z,55.50
2022-07-30T14:43:39.791Z,56.09
2022-07-30T14:46:10.684Z,56.56
2022-07-30T14:48:43.778Z,57.24
2022-07-30T14:51:21.689Z,56.86
2022-07-30T14:53:54.693Z,56.71
2022-07-30T14:56:25.328Z,57.71
2022-07-30T14:58:55.920Z,58.45
2022-07-30T15:01:30.815Z,59.75
2022-07-30T15:04:01.504Z,56.94
2022-07-30T15:06:30.215Z,57.41
2022-07-30T15:08:58.295Z,56.59
2022-07-30T15:11:50.195Z,58.25
2022-07-30T15:14:30.951Z,55.51
2022-07-30T15:17:06.904Z,55.49
2022-07-30T15:19:49.218Z,54.95
2022-07-30T15:22:21.167Z,56.52
2022-07-30T15:24:54.972Z,55.56
2022-07-30T15:27:31.818Z,54.63
2022-07-30T15:30:04.794Z,53.62
2022-07-30T15:32:34.099Z,55.56
2022-07-30T15:35:03.741Z,55.00
2022-07-30T15:40:19.762Z,54.62
2022-07-30T15:42:49.043Z,55.51
2022-07-30T15:45:18.822Z,55.68
2022-07-30T15:47:47.812Z,55.00
2022-07-30T15:50:18.704Z,55.88
2022-07-30T15:55:26.785Z,55.51
2022-07-30T15:58:01.991Z,54.17
2022-07-30T16:00:44.305Z,52.85
2022-07-30T16:05:51.790Z,52.73
2022-07-30T16:08:22.208Z,52.94
2022-07-30T16:10:52.138Z,54.10
2022-07-30T16:13:25.070Z,52.59
2022-07-30T16:15:59.873Z,53.47
2022-07-30T16:18:28.753Z,53.37
2022-07-30T16:21:06.182Z,54.70
2022-07-30T16:23:37.036Z,52.83
2022-07-30T16:26:15.723Z,53.67
2022-07-30T16:28:49.757Z,52.87
2022-07-30T16:31:25.927Z,53.96
2022-07-30T16:36:35.497Z,52.91
2022-07-30T16:39:06.082Z,52.50
2022-07-30T16:41:35.751Z,51.15
2022-07-30T16:44:04.680Z,51.28
2022-07-30T16:46:33.400Z,50.99
2022-07-30T16:49:07.892Z,50.71
2022-07-30T16:51:40.028Z,50.12
2022-07-30T16:54:15.225Z,50.57
2022-07-30T16:56:54.757Z,50.15
2022-07-30T16:59:25.100Z,50.28
2022-07-30T17:01:54.333Z,50.94
2022-07-30T17:04:22.223Z,51.41
2022-07-30T17:06:51.787Z,51.90
2022-07-30T17:09:20.735Z,51.98
2022-07-30T17:12:03.522Z,51.98
2022-07-30T17:14:38.581Z,51.59
2022-07-30T17:17:12.012Z,51.45
2022-07-30T17:19:48.724Z,52.27
2022-07-30T17:22:19.763Z,53.74
2022-07-30T17:24:48.099Z,52.50
2022-07-30T17:27:16.879Z,53.79
2022-07-30T17:29:50.899Z,53.02
2022-07-30T17:32:29.835Z,53.12
2022-07-30T17:35:01.014Z,52.68
2022-07-30T17:37:37.704Z,53.78
2022-07-30T17:40:27.422Z,54.34
2022-07-30T17:43:04.995Z,52.62
2022-07-30T17:45:37.231Z,53.85
2022-07-30T17:48:14.806Z,54.28
2022-07-30T17:50:45.228Z,52.97
2022-07-30T17:53:22.758Z,53.81
2022-07-30T17:55:57.259Z,53.97
2022-07-30T17:58:32.894Z,53.65
2022-07-30T18:01:05.269Z,54.06
2022-07-30T18:03:35.418Z,54.42
2022-07-30T18:06:06.544Z,54.17
2022-07-30T18:08:56.865Z,55.12
2022-07-30T18:11:40.884Z,54.44
2022-07-30T18:14:12.031Z,55.56
2022-07-30T18:16:43.778Z,55.88
2022-07-30T18:19:22.381Z,54.79
2022-07-30T18:24:40.269Z,55.49
2022-07-30T18:27:10.085Z,55.53
2022-07-30T18:29:47.801Z,56.08
2022-07-30T18:32:17.442Z,56.32
2022-07-30T18:34:50.460Z,54.67
2022-07-30T18:37:18.685Z,54.75
2022-07-30T18:39:46.982Z,55.95
2022-07-30T18:42:16.315Z,55.63
2022-07-30T18:44:47.902Z,54.55
2022-07-30T18:47:18.092Z,54.31
2022-07-30T18:49:56.200Z,55.29
2022-07-30T18:52:35.515Z,55.32
2022-07-30T18:55:05.838Z,55.62
2022-07-30T18:57:53.870Z,55.61
2022-07-30T19:00:34.130Z,55.64
2022-07-30T19:03:18.717Z,56.27
2022-07-30T19:08:54.780Z,57.01
2022-07-30T19:11:24.991Z,56.46
2022-07-30T19:14:05.767Z,56.61
2022-07-30T19:16:35.968Z,56.95
2022-07-30T19:19:04.808Z,56.75
2022-07-30T19:21:39.763Z,57.82
2022-07-30T19:24:10.146Z,56.44
2022-07-30T19:29:23.381Z,57.33
2022-07-30T19:31:57.712Z,57.53
2022-07-30T19:34:34.858Z,57.68
2022-07-30T19:37:10.727Z,57.52
2022-07-30T19:40:05.623Z,57.63
2022-07-30T19:45:12.973Z,58.13
2022-07-30T19:47:53.656Z,58.90
2022-07-30T19:50:31.832Z,58.82
2022-07-30T19:53:02.877Z,58.71
2022-07-30T19:55:39.679Z,59.24
2022-07-30T20:04:01.131Z,60.48
2022-07-30T20:06:32.139Z,60.71
2022-07-30T20:09:04.219Z,59.92
2022-07-30T20:14:53.801Z,59.78
2022-07-30T20:17:27.346Z,60.05
2022-07-30T20:20:00.767Z,59.71
2022-07-30T20:22:35.868Z,59.24
2022-07-30T20:27:54.912Z,59.60
2022-07-30T20:30:26.833Z,59.85
2022-07-30T20:33:05.024Z,61.21
2022-07-30T20:35:38.982Z,61.04
2022-07-30T20:38:14.029Z,60.77
2022-07-30T20:40:48.130Z,60.70
2022-07-30T20:43:25.165Z,60.43
2022-07-30T20:45:59.576Z,60.40
2022-07-30T20:48:35.805Z,60.80
2022-07-30T20:51:09.533Z,61.05
2022-07-30T20:53:49.780Z,61.14
2022-07-30T20:56:20.108Z,61.42
2022-07-30T20:58:49.949Z,61.03
2022-07-30T21:01:21.043Z,61.11
2022-07-30T21:03:50.461Z,61.75
2022-07-30T21:06:19.819Z,60.79
2022-07-30T21:08:49.306Z,60.33
2022-07-30T21:11:23.880Z,61.25
2022-07-30T21:13:51.762Z,60.91
2022-07-30T21:16:21.680Z,61.37
2022-07-30T21:18:50.756Z,60.31
2022-07-30T21:21:29.301Z,60.19
2022-07-30T21:24:17.884Z,60.16
2022-07-30T21:27:00.812Z,60.19
2022-07-30T21:29:29.120Z,59.78
2022-07-30T21:32:01.621Z,60.43
2022-07-30T21:34:46.872Z,60.47
2022-07-30T21:37:15.956Z,60.37
2022-07-30T21:39:43.814Z,59.88
2022-07-30T21:42:15.926Z,60.33
2022-07-30T21:44:44.958Z,61.11
2022-07-30T21:47:13.731Z,61.44
2022-07-30T21:49:43.105Z,60.86
2022-07-30T21:52:15.990Z,60.29
2022-07-30T21:54:49.844Z,60.34
2022-07-30T21:57:26.142Z,60.85
2022-07-30T21:59:55.122Z,60.92
2022-07-30T22:02:25.766Z,60.72
2022-07-30T22:04:59.287Z,59.98
2022-07-30T22:07:27.935Z,60.28
2022-07-30T22:09:56.078Z,59.64
2022-07-30T22:12:28.799Z,59.96
2022-07-30T22:14:57.906Z,60.03
2022-07-30T22:17:37.000Z,60.05
2022-07-30T22:20:15.801Z,60.13
2022-07-30T22:22:47.957Z,59.40
2022-07-30T22:25:17.539Z,60.37
2022-07-30T22:27:56.105Z,60.04
2022-07-30T22:30:30.603Z,59.85
2022-07-30T22:33:15.036Z,60.74
2022-07-30T22:38:36.709Z,58.89
2022-07-30T22:41:04.723Z,58.96
2022-07-30T22:43:35.603Z,59.70
2022-07-30T22:46:14.957Z,60.80
2022-07-30T22:48:57.820Z,60.20
2022-07-30T22:51:58.561Z,59.75
2022-07-30T22:54:14.997Z,59.64
2022-07-30T22:56:46.133Z,59.80
2022-07-30T22:59:14.054Z,59.93
2022-07-30T23:01:43.668Z,59.30
2022-07-30T23:04:12.884Z,60.44
2022-07-30T23:06:42.812Z,60.45
2022-07-30T23:09:11.535Z,60.36
2022-07-30T23:11:40.766Z,59.60
2022-07-30T23:12:28.914Z,60.35
2022-07-30T23:14:11.109Z,60.38
2022-07-30T23:16:39.522Z,60.32
2022-07-30T23:19:07.291Z,60.54
2022-07-30T23:21:35.219Z,59.68
2022-07-30T23:24:03.283Z,59.69
2022-07-30T23:26:30.939Z,60.24
2022-07-30T23:28:58.440Z,59.42
2022-07-30T23:31:26.987Z,59.75
2022-07-30T23:33:54.720Z,60.36
2022-07-30T23:36:22.909Z,60.11
2022-07-30T23:38:51.331Z,59.41
2022-07-30T23:41:27.755Z,60.11
2022-07-30T23:43:58.392Z,60.71
2022-07-30T23:46:26.193Z,59.87
2022-07-30T23:48:57.446Z,59.97
2022-07-30T23:51:25.790Z,59.14
2022-07-30T23:54:01.673Z,59.61
2022-07-30T23:56:30.090Z,59.62
2022-07-30T23:58:57.621Z,59.56
